Time;durP1;ratioP1;P1;durP2;ratioP2;P2;SDS_P1;SDS_P2;PMS_P1;PMS_P2;Temp;Humidity;BMP_temperature;BMP_pressure;BME280_temperature;BME280_humidity;BME280_pressure;Samples;Min_cycle;Max_cycle;Signal;HPM_P1;HPM_P2
2023/03/24 00:00:10;;;;;;;;;6.00;3.33;;;;;14.95;71.77;99882.94;5057911;28;45451;-48
2023/03/24 00:02:40;;;;;;;;;8.00;3.67;;;;;14.97;71.76;99886.25;5057580;28;45477;-45
2023/03/24 00:05:07;;;;;;;;;5.33;4.00;;;;;15.04;71.77;99906.88;5057364;28;45227;-44
2023/03/24 00:07:32;;;;;;;;;4.67;3.00;;;;;15.05;71.49;99898.69;5057707;28;45341;-44
2023/03/24 00:09:59;;;;;;;;;3.67;2.67;;;;;15.13;71.27;99909.25;5057742;28;45395;-46
2023/03/24 00:12:24;;;;;;;;;4.33;3.67;;;;;15.02;71.76;99893.69;5056876;28;45332;-44
2023/03/24 00:14:53;;;;;;;;;3.00;3.00;;;;;15.14;71.34;99931.50;5057392;28;45583;-45
2023/03/24 00:17:19;;;;;;;;;4.00;4.00;;;;;15.16;71.29;99910.69;5057375;28;45391;-45
2023/03/24 00:19:45;;;;;;;;;3.67;3.67;;;;;15.17;71.42;99907.00;5057701;28;45300;-45
2023/03/24 00:22:14;;;;;;;;;5.33;2.67;;;;;15.21;71.21;99922.47;5057032;28;46381;-45
2023/03/24 00:24:40;;;;;;;;;2.00;2.00;;;;;15.22;71.12;99923.31;5057225;28;45484;-43
2023/03/24 00:27:06;;;;;;;;;3.33;3.33;;;;;15.22;71.29;99916.09;5057242;28;45320;-45
2023/03/24 00:29:32;;;;;;;;;7.67;5.00;;;;;15.24;71.05;99910.53;5057299;28;45379;-45
2023/03/24 00:31:58;;;;;;;;;3.67;2.67;;;;;15.27;71.40;99909.31;5056972;28;45388;-43
2023/03/24 00:34:24;;;;;;;;;3.00;3.00;;;;;15.25;71.00;99908.66;5057431;28;45408;-44
2023/03/24 00:36:50;;;;;;;;;2.50;2.00;;;;;15.27;71.32;99920.03;5057284;28;45317;-46
2023/03/24 00:39:17;;;;;;;;;4.67;2.33;;;;;15.16;71.01;99908.00;5057226;28;45303;-44
2023/03/24 00:41:44;;;;;;;;;2.67;2.67;;;;;15.23;71.13;99931.13;5057095;28;46226;-43
2023/03/24 00:44:16;;;;;;;;;4.00;4.00;;;;;15.24;71.10;99937.31;5056851;28;45407;-47
2023/03/24 00:46:54;;;;;;;;;3.33;3.00;;;;;15.23;71.08;99939.16;5057042;28;45328;-47
2023/03/24 00:49:41;;;;;;;;;3.00;3.00;;;;;15.26;71.36;99955.88;5057348;28;45339;-47
2023/03/24 00:52:09;;;;;;;;;2.00;2.00;;;;;15.23;70.92;99941.84;5056703;28;45311;-43
2023/03/24 00:54:36;;;;;;;;;5.67;3.00;;;;;15.27;71.08;99952.19;5056744;28;45380;-43
2023/03/24 00:57:02;;;;;;;;;3.67;3.00;;;;;15.28;71.24;99959.19;5056995;28;45539;-43
2023/03/24 00:59:28;;;;;;;;;3.67;3.67;;;;;15.30;71.00;99957.16;5057063;28;45200;-45
2023/03/24 01:01:55;;;;;;;;;2.67;2.67;;;;;15.26;70.54;99935.28;5056313;28;47218;-43
2023/03/24 01:04:25;;;;;;;;;5.00;3.67;;;;;15.32;71.00;99958.59;5056671;28;45339;-46
2023/03/24 01:06:53;;;;;;;;;2.33;2.33;;;;;15.33;70.73;99951.38;5056331;28;45341;-45
2023/03/24 01:09:22;;;;;;;;;4.00;4.00;;;;;15.32;70.80;99949.72;5057084;28;45729;-44
2023/03/24 01:11:47;;;;;;;;;4.67;3.33;;;;;15.32;71.02;99947.88;5056353;28;46243;-46
2023/03/24 01:14:13;;;;;;;;;4.00;2.75;;;;;15.32;71.28;99949.72;5056360;28;45288;-45
2023/03/24 01:16:39;;;;;;;;;3.00;3.00;;;;;15.22;70.96;99924.13;5056593;28;45588;-46
2023/03/24 01:19:05;;;;;;;;;3.00;2.00;;;;;15.28;71.13;99946.63;5056588;28;45543;-44
2023/03/24 01:21:33;;;;;;;;;4.00;2.00;;;;;15.25;71.16;99947.00;5056324;28;46036;-48
2023/03/24 01:24:00;;;;;;;;;4.33;2.33;;;;;15.27;70.97;99950.31;5056469;28;45300;-43
2023/03/24 01:26:26;;;;;;;;;2.00;2.00;;;;;15.27;70.70;99942.28;5071663;28;45494;-46
2023/03/24 01:28:52;;;;;;;;;4.00;2.00;;;;;15.25;70.79;99935.47;5056585;28;45499;-45
2023/03/24 01:31:18;;;;;;;;;3.00;3.00;;;;;15.30;70.71;99949.13;5056327;28;47109;-45
2023/03/24 01:33:43;;;;;;;;;3.00;2.00;;;;;15.30;70.61;99946.44;5056309;28;45343;-43
2023/03/24 01:36:09;;;;;;;;;2.00;2.00;;;;;15.32;70.78;99958.59;5056362;28;46033;-46
2023/03/24 01:38:35;;;;;;;;;3.00;2.67;;;;;15.32;70.51;99952.41;5056383;28;45459;-44
2023/03/24 01:41:01;;;;;;;;;2.00;2.00;;;;;15.36;70.49;99948.31;5055736;28;47165;-45
2023/03/24 01:43:32;;;;;;;;;0.25;0.25;;;;;15.37;70.63;99963.34;5056051;28;45328;-46
2023/03/24 01:45:58;;;;;;;;;4.00;2.67;;;;;15.37;70.14;99953.47;5056350;28;45432;-44
2023/03/24 01:48:43;;;;;;;;;0.00;0.00;;;;;15.37;70.45;99953.47;5056554;28;45348;-44
2023/03/24 01:51:27;;;;;;;;;4.25;2.25;;;;;15.37;70.23;99968.72;5055845;28;46234;-45
2023/03/24 01:54:00;;;;;;;;;2.00;2.00;;;;;15.23;70.36;99951.75;5056099;28;45310;-46
2023/03/24 01:56:30;;;;;;;;;4.00;2.00;;;;;15.31;70.38;99975.72;5056019;28;45353;-45
2023/03/24 01:58:59;;;;;;;;;2.00;2.00;;;;;15.28;70.47;99972.59;5056019;28;45446;-45
2023/03/24 02:01:28;;;;;;;;;4.25;2.00;;;;;15.20;70.58;99966.34;5055727;28;46363;-45
2023/03/24 02:03:54;;;;;;;;;1.25;1.25;;;;;15.25;70.59;99957.72;5055640;28;45957;-46
2023/03/24 02:06:24;;;;;;;;;2.00;2.00;;;;;15.30;70.30;99959.84;5055864;28;45363;-46
2023/03/24 02:08:57;;;;;;;;;4.00;2.00;;;;;15.29;70.27;99955.47;5038076;28;45521;-44
2023/03/24 02:11:27;;;;;;;;;5.50;2.75;;;;;15.28;70.29;99943.94;5055545;28;45693;-44
2023/03/24 02:13:53;;;;;;;;;1.50;1.50;;;;;15.28;70.34;99941.25;5055546;28;45387;-46
2023/03/24 02:16:38;;;;;;;;;5.50;2.75;;;;;15.25;70.37;99946.19;5056222;28;45383;-44
2023/03/24 02:19:26;;;;;;;;;3.00;3.00;;;;;15.20;70.19;99939.56;5055870;28;45705;-45
2023/03/24 02:22:22;;;;;;;;;2.50;2.50;;;;;15.18;70.45;99930.06;5055820;28;46739;-46
2023/03/24 02:24:49;;;;;;;;;3.00;1.33;;;;;15.16;70.60;99954.38;5059263;28;45372;-44
2023/03/24 02:27:28;;;;;;;;;7.00;3.00;;;;;15.12;71.11;99955.78;5074966;28;45395;-44
2023/03/24 02:30:17;;;;;;;;;4.00;3.67;;;;;15.10;71.14;99954.34;5059185;28;45528;-45
2023/03/24 02:33:06;;;;;;;;;2.00;2.00;;;;;15.07;71.26;99968.09;5019584;28;46409;-45
2023/03/24 02:36:00;;;;;;;;;2.67;2.00;;;;;15.05;71.71;99967.50;5036401;28;45404;-47
2023/03/24 02:38:41;;;;;;;;;4.67;3.00;;;;;15.04;71.14;99963.97;5036382;28;45502;-46
2023/03/24 02:41:39;;;;;;;;;1.00;1.00;;;;;15.03;71.56;99980.22;5036610;28;45529;-47
2023/03/24 02:44:44;;;;;;;;;3.00;3.00;;;;;15.04;71.70;99993.41;5036261;28;46139;-45
2023/03/24 02:47:24;;;;;;;;;4.67;2.00;;;;;15.06;71.62;99985.22;5036204;28;45453;-44
2023/03/24 02:50:02;;;;;;;;;2.00;0.00;;;;;15.02;71.33;99982.09;5036376;28;45499;-46
2023/03/24 02:52:49;;;;;;;;;2.00;2.00;;;;;14.98;71.40;99970.09;5036484;28;45398;-45
2023/03/24 02:55:33;;;;;;;;;3.00;2.00;;;;;14.98;71.53;99970.09;5036196;28;46262;-44
2023/03/24 02:58:20;;;;;;;;;2.00;2.00;;;;;14.93;71.21;99972.53;5036311;28;45668;-51
2023/03/24 03:00:58;;;;;;;;;3.00;2.00;;;;;14.90;71.56;99978.28;5036568;28;45368;-45
2023/03/24 03:03:33;;;;;;;;;3.00;3.00;;;;;14.89;71.18;99973.94;5036522;28;45450;-46
2023/03/24 03:06:25;;;;;;;;;3.00;1.00;;;;;14.77;71.31;99962.09;5035868;28;47583;-46
2023/03/24 03:08:52;;;;;;;;;4.00;1.67;;;;;14.85;71.30;99978.03;5038177;28;45410;-44
2023/03/24 03:11:18;;;;;;;;;2.00;2.00;;;;;14.81;71.22;99984.78;5058616;28;45400;-47
2023/03/24 03:13:58;;;;;;;;;2.33;2.00;;;;;14.79;71.22;99992.19;5058619;28;45465;-47
2023/03/24 03:16:46;;;;;;;;;2.33;2.33;;;;;14.79;71.15;99997.53;5058031;28;46422;-45
2023/03/24 03:19:18;;;;;;;;;2.33;2.00;;;;;14.78;71.18;100006.59;5058282;28;45414;-44
2023/03/24 03:21:46;;;;;;;;;2.67;2.67;;;;;14.74;71.12;100011.50;5058402;28;45439;-46
2023/03/24 03:24:25;;;;;;;;;3.00;1.00;;;;;14.68;71.25;100009.59;5058584;28;45571;-46
2023/03/24 03:26:56;;;;;;;;;3.00;1.33;;;;;14.64;71.09;100008.31;5057967;28;46135;-48
2023/03/24 03:29:27;;;;;;;;;3.00;1.33;;;;;14.64;71.21;100013.69;5058181;28;45331;-47
2023/03/24 03:32:06;;;;;;;;;1.00;1.00;;;;;14.61;71.12;100014.88;5058351;28;45445;-46
2023/03/24 03:35:00;;;;;;;;;1.33;1.00;;;;;14.59;70.84;100019.59;5057986;28;45339;-44
2023/03/24 03:37:26;;;;;;;;;2.33;1.00;;;;;14.58;70.29;100017.97;5057705;28;45452;-45
2023/03/24 03:39:57;;;;;;;;;3.00;2.00;;;;;14.54;70.35;100011.31;5057633;28;45447;-46
2023/03/24 03:42:23;;;;;;;;;2.00;0.00;;;;;14.58;69.82;100022.44;5058287;28;45407;-46
2023/03/24 03:44:48;;;;;;;;;1.00;0.67;;;;;14.55;69.40;100021.00;5058288;28;45276;-45
2023/03/24 03:47:15;;;;;;;;;0.00;0.00;;;;;14.54;69.06;100032.72;5039885;28;47024;-46
2023/03/24 03:49:41;;;;;;;;;0.33;0.33;;;;;14.51;69.03;100017.06;5057934;28;45377;-46
2023/03/24 03:52:07;;;;;;;;;2.33;1.00;;;;;14.50;68.90;100018.06;5057781;28;45324;-42
2023/03/24 03:54:33;;;;;;;;;2.00;0.00;;;;;14.49;68.71;100027.09;5058166;28;45440;-44
2023/03/24 03:56:59;;;;;;;;;0.00;0.00;;;;;14.49;68.16;100019.06;5057597;28;46487;-47
2023/03/24 03:59:32;;;;;;;;;0.00;0.00;;;;;14.45;68.22;100020.44;5057858;28;45249;-46
2023/03/24 04:02:07;;;;;;;;;0.00;0.00;;;;;14.44;68.11;100030.31;5057488;28;45387;-46
2023/03/24 04:05:09;;;;;;;;;0.67;0.67;;;;;14.42;67.98;100047.59;5057933;28;45423;-47
2023/03/24 04:08:07;;;;;;;;;1.00;1.00;;;;;14.40;67.91;100047.75;5014598;28;46553;-44
2023/03/24 04:10:58;;;;;;;;;1.00;0.00;;;;;14.39;67.08;100031.91;5015266;28;45508;-46
2023/03/24 04:13:30;;;;;;;;;1.00;0.00;;;;;14.38;67.26;100040.97;5000097;28;45488;-45
2023/03/24 04:16:26;;;;;;;;;3.00;0.67;;;;;14.35;67.15;100035.97;5015368;28;45429;-45
2023/03/24 04:19:10;;;;;;;;;2.00;0.67;;;;;14.37;67.16;100041.97;5014670;28;47312;-45
2023/03/24 04:21:47;;;;;;;;;0.00;0.00;;;;;14.38;66.91;100041.78;5014918;28;45503;-46
2023/03/24 04:24:31;;;;;;;;;1.00;1.00;;;;;14.33;66.95;100049.56;5015079;28;45342;-46
2023/03/24 04:27:02;;;;;;;;;2.00;1.00;;;;;14.36;66.69;100049.16;5015429;28;45391;-46
2023/03/24 04:29:45;;;;;;;;;7.33;0.00;;;;;14.34;66.71;100053.06;5014544;28;46427;-46
2023/03/24 04:32:40;;;;;;;;;1.67;0.00;;;;;14.27;66.31;100065.50;5014729;28;45348;-47
2023/03/24 04:35:30;;;;;;;;;1.00;1.00;;;;;14.21;65.77;100065.25;4975253;28;45444;-47
2023/03/24 04:38:02;;;;;;;;;2.00;0.00;;;;;14.20;65.91;100081.50;4975307;28;45535;-45
2023/03/24 04:40:31;;;;;;;;;0.00;0.00;;;;;14.17;65.68;100077.34;4974873;28;46165;-46
2023/03/24 04:43:02;;;;;;;;;0.00;0.00;;;;;14.14;65.56;100072.34;4975469;28;45397;-47
2023/03/24 04:45:32;;;;;;;;;1.00;1.00;;;;;14.13;65.60;100077.91;4990749;28;45364;-45
2023/03/24 04:48:00;;;;;;;;;0.00;0.00;;;;;14.09;65.76;100074.75;4994978;28;45305;-45
2023/03/24 04:50:33;;;;;;;;;2.33;0.67;;;;;14.15;65.53;100092.72;4994806;28;47018;-45
2023/03/24 04:52:59;;;;;;;;;1.00;0.33;;;;;14.06;65.84;100071.63;4994370;28;45320;-45
2023/03/24 04:55:53;;;;;;;;;1.00;1.00;;;;;14.14;65.65;100090.25;4994804;28;45492;-46
2023/03/24 04:58:21;;;;;;;;;0.00;0.00;;;;;14.14;65.89;100093.75;4994990;28;45330;-43
2023/03/24 05:00:47;;;;;;;;;1.00;1.00;;;;;14.13;66.09;100102.81;4994644;28;46202;-45
2023/03/24 05:03:14;;;;;;;;;2.00;2.00;;;;;14.15;66.29;100108.78;4994457;28;45506;-46
2023/03/24 05:05:40;;;;;;;;;2.00;0.00;;;;;14.17;66.49;100112.13;4994291;28;45593;-46
2023/03/24 05:08:07;;;;;;;;;2.33;1.00;;;;;14.18;66.56;100113.75;4994514;28;45284;-46
2023/03/24 05:10:33;;;;;;;;;0.67;0.00;;;;;14.15;66.60;100118.66;4994346;28;46307;-45
2023/03/24 05:12:59;;;;;;;;;1.33;0.00;;;;;14.09;66.72;100112.22;5050809;28;45438;-43
2023/03/24 05:15:24;;;;;;;;;2.00;0.33;;;;;14.02;67.01;100103.25;5056508;28;45575;-44
2023/03/24 05:17:51;;;;;;;;;0.00;0.00;;;;;14.06;66.85;100125.94;5057163;28;45475;-46
2023/03/24 05:20:16;;;;;;;;;0.00;0.00;;;;;14.05;67.37;100142.19;5056295;28;46342;-45
2023/03/24 05:22:42;;;;;;;;;0.67;0.67;;;;;13.94;67.28;100124.72;5055728;28;45403;-44
2023/03/24 05:25:08;;;;;;;;;3.00;1.00;;;;;13.95;67.29;100145.13;5056373;28;45442;-45
2023/03/24 05:27:33;;;;;;;;;0.67;0.00;;;;;13.91;67.32;100136.66;5056752;28;45344;-44
2023/03/24 05:29:58;;;;;;;;;3.00;0.00;;;;;13.85;67.51;100140.03;5056039;28;46271;-46
2023/03/24 05:32:24;;;;;;;;;1.00;1.00;;;;;13.83;67.86;100143.91;5056390;28;45380;-44
2023/03/24 05:34:49;;;;;;;;;2.33;1.00;;;;;13.78;67.45;100147.16;5056535;28;45603;-46
2023/03/24 05:37:16;;;;;;;;;3.00;1.33;;;;;13.72;67.17;100150.53;5056547;28;45389;-46
2023/03/24 05:39:43;;;;;;;;;1.00;1.00;;;;;13.64;67.09;100146.09;5055867;28;46335;-46
2023/03/24 05:42:09;;;;;;;;;1.00;0.00;;;;;13.64;66.89;100150.59;5055610;28;45313;-45
2023/03/24 05:44:35;;;;;;;;;2.33;1.00;;;;;13.53;67.24;100140.38;5056414;28;45336;-44
2023/03/24 05:47:00;;;;;;;;;4.00;0.00;;;;;13.59;67.13;100166.34;5056452;28;45312;-46
2023/03/24 05:49:26;;;;;;;;;4.00;1.67;;;;;13.59;67.13;100166.34;5055779;28;45605;-44
2023/03/24 05:51:51;;;;;;;;;1.67;1.33;;;;;13.54;66.87;100156.22;5055881;28;45393;-48
2023/03/24 05:54:16;;;;;;;;;1.00;0.00;;;;;13.53;67.21;100157.22;5056116;28;45422;-45
2023/03/24 05:56:42;;;;;;;;;0.00;0.00;;;;;13.52;67.19;100174.25;5057945;28;45482;-46
2023/03/24 05:59:07;;;;;;;;;1.00;1.00;;;;;13.45;67.32;100167.97;5059365;28;45851;-47
2023/03/24 06:01:32;;;;;;;;;0.00;0.00;;;;;13.48;67.64;100176.47;5059365;28;45387;-44
2023/03/24 06:03:58;;;;;;;;;0.00;0.00;;;;;13.47;67.47;100184.66;5059243;28;48307;-43
2023/03/24 06:06:25;;;;;;;;;2.00;1.00;;;;;13.45;67.33;100186.69;5059528;28;45497;-44
2023/03/24 06:08:53;;;;;;;;;1.67;0.33;;;;;13.44;67.50;100203.69;5059442;28;45344;-46
2023/03/24 06:11:18;;;;;;;;;1.00;0.00;;;;;13.42;67.35;100200.38;5059314;28;45390;-43
2023/03/24 06:13:44;;;;;;;;;4.33;0.67;;;;;13.38;67.24;100207.09;5059404;28;45617;-42
2023/03/24 06:16:09;;;;;;;;;1.00;1.00;;;;;13.37;66.87;100213.47;5059566;28;45308;-45
2023/03/24 06:18:34;;;;;;;;;0.67;0.67;;;;;13.35;67.07;100216.28;5059085;28;45631;-44
2023/03/24 06:21:00;;;;;;;;;2.00;0.67;;;;;13.32;66.94;100215.84;5059279;28;46008;-45
2023/03/24 06:23:27;;;;;;;;;3.00;1.00;;;;;13.33;67.19;100221.00;5058940;28;45332;-45
2023/03/24 06:25:54;;;;;;;;;2.00;0.00;;;;;13.30;66.81;100231.19;5059482;28;45427;-44
2023/03/24 06:28:20;;;;;;;;;1.00;1.00;;;;;13.28;66.93;100233.22;5059068;28;45436;-47
2023/03/24 06:30:47;;;;;;;;;1.00;1.00;;;;;13.29;66.67;100241.06;5059137;28;45217;-44
2023/03/24 06:33:13;;;;;;;;;2.67;1.00;;;;;13.28;67.11;100235.91;5058986;28;45475;-44
2023/03/24 06:35:39;;;;;;;;;1.33;0.00;;;;;13.31;66.65;100255.03;5059319;28;45578;-48
2023/03/24 06:38:05;;;;;;;;;1.00;1.00;;;;;13.32;66.55;100255.91;5058649;28;46139;-45
2023/03/24 06:40:31;;;;;;;;;1.00;1.00;;;;;13.34;66.60;100251.22;5040435;28;45382;-45
2023/03/24 06:42:57;;;;;;;;;1.67;0.67;;;;;13.33;66.44;100262.91;5058965;28;45387;-45
2023/03/24 06:45:22;;;;;;;;;2.00;2.00;;;;;13.33;66.57;100263.72;5058862;28;45401;-46
2023/03/24 06:47:47;;;;;;;;;4.00;1.33;;;;;13.33;66.19;100257.56;5059058;28;47074;-44
2023/03/24 06:50:14;;;;;;;;;3.00;1.00;;;;;13.25;66.85;100245.09;5058314;28;45454;-44
2023/03/24 06:52:40;;;;;;;;;1.33;1.33;;;;;13.43;66.33;100267.00;5059137;28;45414;-44
2023/03/24 06:55:07;;;;;;;;;3.00;0.67;;;;;13.44;65.93;100243.78;5058771;28;45462;-46
2023/03/24 06:57:32;;;;;;;;;2.00;2.00;;;;;13.58;65.80;100268.94;5058288;28;46123;-47
2023/03/24 06:59:58;;;;;;;;;3.00;1.00;;;;;13.60;65.82;100266.88;5058391;28;45407;-44
2023/03/24 07:02:23;;;;;;;;;7.00;2.00;;;;;13.61;65.50;100266.72;5058591;28;45712;-43
2023/03/24 07:04:49;;;;;;;;;2.00;1.00;;;;;13.66;65.79;100279.56;5074858;28;45468;-45
2023/03/24 07:07:14;;;;;;;;;2.00;0.67;;;;;13.73;66.23;100289.34;5058152;28;46137;-45
2023/03/24 07:09:40;;;;;;;;;3.33;0.00;;;;;13.78;66.16;100287.97;5057952;28;45475;-44
2023/03/24 07:12:05;;;;;;;;;0.00;0.00;;;;;13.86;65.54;100287.91;5058676;28;45344;-43
2023/03/24 07:14:31;;;;;;;;;2.33;2.00;;;;;13.92;64.63;100297.91;5058672;28;45455;-45
2023/03/24 07:16:57;;;;;;;;;1.00;1.00;;;;;13.99;64.32;100296.19;5058339;28;47002;-47
2023/03/24 07:19:23;;;;;;;;;3.00;1.00;;;;;14.05;64.61;100302.66;5058003;28;45443;-46
2023/03/24 07:21:49;;;;;;;;;0.33;0.33;;;;;14.09;64.15;100307.44;5058468;28;45651;-47
2023/03/24 07:24:16;;;;;;;;;3.00;0.00;;;;;14.09;64.05;100294.09;5058296;28;45420;-48
2023/03/24 07:26:42;;;;;;;;;4.00;0.00;;;;;14.15;63.87;100296.03;5058190;28;45433;-45
2023/03/24 07:29:07;;;;;;;;;2.00;1.00;;;;;14.28;63.59;100307.94;5058060;28;45446;-43
2023/03/24 07:31:36;;;;;;;;;7.33;0.67;;;;;14.39;63.86;100313.69;5057986;28;45415;-47
2023/03/24 07:34:03;;;;;;;;;3.00;2.00;;;;;14.44;62.85;100308.63;5058381;28;45530;-46
2023/03/24 07:36:28;;;;;;;;;3.00;1.67;;;;;14.48;63.12;100311.78;5057813;28;46403;-47
2023/03/24 07:38:53;;;;;;;;;3.00;2.00;;;;;14.50;62.51;100307.13;5057610;28;45414;-45
2023/03/24 07:41:18;;;;;;;;;1.67;1.00;;;;;14.50;62.65;100311.63;5057822;28;45964;-47
2023/03/24 07:43:44;;;;;;;;;1.33;0.00;;;;;14.52;62.65;100313.09;5058305;28;45383;-45
2023/03/24 07:46:09;;;;;;;;;6.67;2.33;;;;;14.56;62.50;100319.75;5057812;28;45446;-47
2023/03/24 07:48:34;;;;;;;;;4.67;1.33;;;;;14.69;61.54;100314.59;5057814;28;45372;-47
2023/03/24 07:51:00;;;;;;;;;0.00;0.00;;;;;14.71;60.98;100322.47;5057968;28;45361;-45
2023/03/24 07:53:25;;;;;;;;;1.67;1.00;;;;;14.85;60.89;100323.47;5057888;28;45335;-44
2023/03/24 07:55:50;;;;;;;;;7.00;0.67;;;;;14.84;61.17;100306.56;5057631;28;46314;-46
2023/03/24 07:58:16;;;;;;;;;2.33;1.67;;;;;14.85;60.27;100310.09;5057710;28;45380;-45
2023/03/24 08:00:42;;;;;;;;;0.33;0.33;;;;;14.85;59.79;100318.13;5057853;28;45337;-51
2023/03/24 08:03:12;;;;;;;;;4.00;2.00;;;;;14.81;61.20;100317.66;5057837;28;45463;-48
2023/03/24 08:05:39;;;;;;;;;3.33;0.00;;;;;14.96;59.82;100337.25;5057397;28;46168;-48
2023/03/24 08:08:05;;;;;;;;;0.33;0.33;;;;;15.14;60.13;100331.50;5057635;28;45403;-46
2023/03/24 08:10:31;;;;;;;;;1.00;1.00;;;;;15.26;60.49;100329.16;5057421;28;45455;-49
2023/03/24 08:12:58;;;;;;;;;1.33;1.33;;;;;15.27;60.34;100335.34;5057731;28;45410;-51
2023/03/24 08:15:25;;;;;;;;;1.00;1.00;;;;;15.32;58.89;100343.66;5057036;28;46280;-49
2023/03/24 08:17:50;;;;;;;;;1.00;1.00;;;;;15.42;58.87;100328.97;5057118;28;45354;-52
2023/03/24 08:20:18;;;;;;;;;1.00;1.00;;;;;15.67;58.41;100329.47;5056229;28;45383;-46
2023/03/24 08:22:48;;;;;;;;;2.00;1.00;;;;;15.96;57.44;100341.91;5057282;28;45479;-47
2023/03/24 08:25:17;;;;;;;;;5.00;2.00;;;;;16.11;56.23;100317.72;5056913;28;45284;-48
2023/03/24 08:27:43;;;;;;;;;2.67;0.33;;;;;16.17;55.80;100338.41;5056909;28;45402;-45
2023/03/24 08:30:12;;;;;;;;;3.25;1.00;;;;;16.21;55.53;100334.31;5057245;28;45368;-46
2023/03/24 08:32:46;;;;;;;;;6.25;1.00;;;;;16.37;55.03;100346.63;5057241;28;45597;-47
2023/03/24 08:35:14;;;;;;;;;2.50;2.00;;;;;16.36;55.83;100354.88;5056939;28;45396;-45
2023/03/24 08:37:44;;;;;;;;;4.00;1.33;;;;;16.50;55.03;100339.72;5056766;28;45486;-45
2023/03/24 08:40:17;;;;;;;;;4.75;1.50;;;;;17.20;54.05;100355.69;5054437;28;45355;-44
2023/03/24 08:42:46;;;;;;;;;2.00;0.50;;;;;18.48;50.19;100349.56;5054988;28;45411;-48
2023/03/24 08:45:12;;;;;;;;;1.50;1.00;;;;;18.84;49.03;100354.53;5052786;28;47085;-48
2023/03/24 08:47:38;;;;;;;;;2.00;2.00;;;;;18.32;49.17;100357.00;5053448;28;45488;-48
2023/03/24 08:50:05;;;;;;;;;2.00;2.00;;;;;19.99;47.96;100362.81;5053205;28;45434;-45
2023/03/24 08:52:31;;;;;;;;;1.00;0.25;;;;;19.72;48.57;100357.56;5053429;28;45419;-46
2023/03/24 08:54:56;;;;;;;;;5.00;2.00;;;;;21.04;46.41;100371.91;5034875;28;45446;-45
2023/03/24 08:57:22;;;;;;;;;2.25;0.25;;;;;20.37;45.84;100373.53;5053402;28;45421;-47
2023/03/24 08:59:47;;;;;;;;;1.00;1.00;;;;;20.02;46.40;100365.91;5052847;28;45424;-45
2023/03/24 09:02:13;;;;;;;;;1.00;1.00;;;;;19.57;48.22;100370.47;5053693;28;45399;-45
2023/03/24 09:04:38;;;;;;;;;2.00;0.25;;;;;18.97;47.58;100376.06;5052858;28;45999;-45
2023/03/24 09:07:04;;;;;;;;;1.00;1.00;;;;;18.48;48.70;100377.31;5053388;28;45489;-46
2023/03/24 09:09:30;;;;;;;;;0.75;0.75;;;;;18.10;49.40;100390.56;5053606;28;45442;-45
2023/03/24 09:11:56;;;;;;;;;2.00;2.00;;;;;19.01;48.66;100381.88;5053116;28;45600;-43
2023/03/24 09:14:21;;;;;;;;;3.00;2.25;;;;;18.88;48.03;100378.16;5053003;28;46251;-43
2023/03/24 09:16:48;;;;;;;;;3.50;1.75;;;;;18.65;48.74;100383.94;5052999;28;45474;-47
2023/03/24 09:19:15;;;;;;;;;3.00;1.00;;;;;18.97;47.16;100384.16;5053494;28;45431;-44
2023/03/24 09:21:43;;;;;;;;;3.50;1.00;;;;;18.98;47.32;100387.69;5052749;28;45474;-42
2023/03/24 09:24:08;;;;;;;;;6.50;3.50;;;;;19.79;47.67;100382.63;5052933;28;47698;-42
2023/03/24 09:26:34;;;;;;;;;1.75;0.75;;;;;20.62;43.78;100387.91;5052927;28;45490;-47
2023/03/24 09:28:59;;;;;;;;;0.75;0.50;;;;;20.49;43.67;100377.22;5053275;28;45818;-47
2023/03/24 09:31:25;;;;;;;;;3.25;1.00;;;;;19.93;47.11;100378.84;5052488;28;45439;-45
2023/03/24 09:33:51;;;;;;;;;3.00;2.00;;;;;19.47;46.87;100380.88;5052863;28;46905;-42
2023/03/24 09:36:16;;;;;;;;;1.80;0.20;;;;;19.61;47.35;100382.53;5053418;28;45384;-45
2023/03/24 09:38:42;;;;;;;;;2.75;1.00;;;;;19.24;45.82;100401.09;5052199;28;45598;-47
2023/03/24 09:41:17;;;;;;;;;3.00;1.00;;;;;18.75;46.35;100407.84;5052972;28;45550;-44
2023/03/24 09:44:09;;;;;;;;;1.00;1.00;;;;;18.20;46.53;100391.81;5052200;28;46557;-43
2023/03/24 09:46:45;;;;;;;;;1.40;1.40;;;;;17.90;48.54;100398.56;5029134;28;45570;-45
2023/03/24 09:49:15;;;;;;;;;0.00;0.00;;;;;17.89;47.41;100400.44;5030475;28;45427;-45
2023/03/24 09:51:43;;;;;;;;;1.25;0.75;;;;;18.04;47.88;100394.91;5030299;28;45488;-44
2023/03/24 09:54:35;;;;;;;;;1.00;1.00;;;;;18.17;46.77;100404.88;5029972;28;45508;-42
2023/03/24 09:57:02;;;;;;;;;2.50;1.00;;;;;18.43;46.62;100398.69;5029882;28;45557;-46
2023/03/24 09:59:27;;;;;;;;;1.00;1.00;;;;;18.70;45.90;100407.59;5030306;28;45493;-46
2023/03/24 10:01:53;;;;;;;;;3.00;1.00;;;;;18.61;46.19;100393.50;5029661;28;45502;-43
2023/03/24 10:04:23;;;;;;;;;3.50;1.00;;;;;18.61;45.79;100401.56;5030220;28;45474;-44
2023/03/24 10:07:05;;;;;;;;;2.25;0.00;;;;;18.62;46.11;100394.31;5030064;28;45536;-46
2023/03/24 10:09:34;;;;;;;;;4.00;1.00;;;;;18.45;45.32;100401.97;5030265;28;45482;-46
2023/03/24 10:12:23;;;;;;;;;3.00;0.50;;;;;17.97;47.45;100401.31;5012742;28;45411;-45
2023/03/24 10:15:11;;;;;;;;;3.00;1.00;;;;;17.54;47.35;100418.50;5029259;28;45585;-46
2023/03/24 10:18:05;;;;;;;;;4.00;1.00;;;;;19.03;45.88;100422.91;5029696;28;45463;-42
2023/03/24 10:20:36;;;;;;;;;1.50;0.25;;;;;22.99;38.93;100430.25;5029117;28;45482;-44
2023/03/24 10:23:29;;;;;;;;;3.25;3.00;;;;;23.05;38.58;100404.06;5032903;28;45514;-45
2023/03/24 10:26:04;;;;;;;;;1.50;0.25;;;;;21.90;40.64;100426.88;5050411;28;46232;-43
2023/03/24 10:28:44;;;;;;;;;2.80;1.00;;;;;24.22;38.71;100419.22;5052529;28;45387;-45
2023/03/24 10:31:13;;;;;;;;;2.80;0.80;;;;;22.89;37.88;100400.97;5052263;28;45509;-45
2023/03/24 10:33:42;;;;;;;;;1.00;1.00;;;;;22.38;39.27;100420.63;5052351;28;45580;-45
2023/03/24 10:36:17;;;;;;;;;0.00;0.00;;;;;21.51;40.64;100409.28;5052016;28;46302;-45
2023/03/24 10:38:43;;;;;;;;;1.20;1.20;;;;;21.04;41.00;100422.47;5051442;28;45493;-44
2023/03/24 10:41:23;;;;;;;;;3.80;0.40;;;;;20.57;41.54;100420.19;5052216;28;45458;-44
2023/03/24 10:43:51;;;;;;;;;1.00;1.00;;;;;20.32;42.63;100422.00;5054147;28;45381;-47
2023/03/24 10:46:21;;;;;;;;;0.60;0.60;;;;;20.42;42.10;100422.34;5055476;28;46327;-43
2023/03/24 10:48:49;;;;;;;;;3.00;2.00;;;;;20.41;41.68;100412.56;5037160;28;45374;-45
2023/03/24 10:51:25;;;;;;;;;3.40;0.80;;;;;20.24;42.00;100416.88;5055641;28;45407;-47
2023/03/24 10:54:08;;;;;;;;;1.00;1.00;;;;;20.39;42.09;100401.16;5055272;28;45897;-48
2023/03/24 10:56:48;;;;;;;;;3.00;1.40;;;;;23.85;36.79;100416.88;5054903;28;45677;-48
2023/03/24 10:59:20;;;;;;;;;1.40;1.40;;;;;23.92;37.90;100411.31;5055384;28;45637;-45
2023/03/24 11:01:46;;;;;;;;;1.60;0.80;;;;;27.01;32.98;100403.84;5055200;28;45495;-44
2023/03/24 11:04:16;;;;;;;;;1.75;1.00;;;;;27.32;32.99;100391.22;5055438;28;45535;-43
2023/03/24 11:07:19;;;;;;;;;3.00;1.60;;;;;26.94;33.53;100406.00;5054750;28;46693;-46
2023/03/24 11:10:08;;;;;;;;;1.00;1.00;;;;;24.74;33.97;100417.13;5012463;28;45475;-46
2023/03/24 11:12:42;;;;;;;;;5.00;0.60;;;;;23.37;35.32;100424.31;5012363;28;45504;-47
2023/03/24 11:15:16;;;;;;;;;2.00;1.80;;;;;23.39;35.93;100408.63;5012934;28;45483;-44
2023/03/24 11:17:42;;;;;;;;;3.20;1.80;;;;;23.52;35.49;100406.72;5011941;28;46495;-44
2023/03/24 11:20:16;;;;;;;;;1.20;1.00;;;;;22.52;36.26;100416.63;5012405;28;45677;-48
2023/03/24 11:22:54;;;;;;;;;2.80;1.20;;;;;24.20;35.10;100399.63;5012594;28;45463;-48
2023/03/24 11:25:25;;;;;;;;;2.20;1.00;;;;;25.69;32.35;100396.13;5013985;28;45519;-44
2023/03/24 11:27:59;;;;;;;;;2.20;1.00;;;;;26.90;31.30;100393.97;5015777;28;45390;-44
2023/03/24 11:30:31;;;;;;;;;2.00;1.00;;;;;25.69;33.42;100400.75;5015716;28;45450;-45
2023/03/24 11:32:57;;;;;;;;;0.00;0.00;;;;;25.46;31.70;100371.88;5015778;28;45556;-43
2023/03/24 11:35:23;;;;;;;;;4.50;0.00;;;;;24.65;33.22;100394.16;5016017;28;45428;-45
2023/03/24 11:37:48;;;;;;;;;1.25;0.00;;;;;23.30;34.49;100395.66;5015774;28;45983;-43
2023/03/24 11:40:21;;;;;;;;;2.00;2.00;;;;;23.40;35.29;100402.13;5015353;28;45443;-44
2023/03/24 11:42:56;;;;;;;;;0.80;0.00;;;;;25.83;34.08;100393.84;5015543;28;45490;-43